KLM43 EHAM-LEBL
Flight info
| Callsign | KLM43 |
|---|---|
| Flight time | N/A |
| Altitude | 35000 |
| Route | WOODY N872 MEDIL DCT KOVIN DCT DUCRA UM728 RESMI UN857 DISAK DCT DIRMO DCT VALKU DCT ATSUP DCT MINSO DCT DEGOL DCT PPG DCT ALBER |
| Aircraft | A21N/M-SDE2E3FGHIRWXY/LB1 |
Departure
| Time | 2026-04-28 17:57 |
|---|---|
| Airport | Amsterdam Airport Schiphol (EHAM) |
Arrival
| Time | N/A |
|---|---|
| Airport | Josep Tarradellas Barcelona-El Prat Airport (LEBL) |
| Time | Latitude | Longitude | Altitude | Speed | Heading |
|---|---|---|---|---|---|
| 2026-04-28 17:13 | 52.31407 | 4.77033 | 3 ft | 0 kts | 302° |
| 2026-04-28 17:35 | 52.31404 | 4.77041 | 3 ft | 4 kts | 303° |
| 2026-04-28 17:35 | 52.31388 | 4.77077 | 3 ft | 4 kts | 308° |
| 2026-04-28 17:35 | 52.31371 | 4.77110 | 3 ft | 4 kts | 317° |
| 2026-04-28 17:35 | 52.31350 | 4.77134 | 3 ft | 4 kts | 343° |
| 2026-04-28 17:36 | 52.31331 | 4.77133 | 3 ft | 1 kts | 34° |
| 2026-04-28 17:36 | 52.31327 | 4.77129 | 3 ft | 0 kts | 34° |
| 2026-04-28 17:43 | 52.31332 | 4.77134 | 3 ft | 2 kts | 34° |
| 2026-04-28 17:43 | 52.31349 | 4.77153 | 3 ft | 5 kts | 32° |
| 2026-04-28 17:43 | 52.31387 | 4.77185 | 3 ft | 8 kts | 17° |
| 2026-04-28 17:44 | 52.31449 | 4.77193 | 3 ft | 11 kts | 4° |
| 2026-04-28 17:44 | 52.31531 | 4.77189 | 3 ft | 13 kts | 338° |
| 2026-04-28 17:44 | 52.31565 | 4.77051 | 3 ft | 15 kts | 264° |
| 2026-04-28 17:44 | 52.31560 | 4.76864 | 3 ft | 18 kts | 269° |
| 2026-04-28 17:45 | 52.31554 | 4.76650 | 3 ft | 20 kts | 267° |
| 2026-04-28 17:45 | 52.31547 | 4.76416 | 3 ft | 21 kts | 267° |
| 2026-04-28 17:45 | 52.31538 | 4.76164 | 3 ft | 23 kts | 266° |
| 2026-04-28 17:45 | 52.31527 | 4.75893 | 3 ft | 25 kts | 266° |
| 2026-04-28 17:46 | 52.31519 | 4.75613 | 3 ft | 25 kts | 267° |
| 2026-04-28 17:46 | 52.31508 | 4.75327 | 3 ft | 25 kts | 266° |
| 2026-04-28 17:46 | 52.31499 | 4.75039 | 3 ft | 26 kts | 267° |
| 2026-04-28 17:46 | 52.31488 | 4.74750 | 3 ft | 26 kts | 266° |
| 2026-04-28 17:47 | 52.31481 | 4.74533 | 3 ft | 16 kts | 267° |
| 2026-04-28 17:47 | 52.31488 | 4.74345 | 3 ft | 17 kts | 302° |
| 2026-04-28 17:47 | 52.31603 | 4.74297 | 6 ft | 19 kts | 5° |
| 2026-04-28 17:47 | 52.31691 | 4.74306 | 5 ft | 20 kts | 2° |
| 2026-04-28 17:48 | 52.31877 | 4.74325 | 0 ft | 20 kts | 3° |
| 2026-04-28 17:48 | 52.31947 | 4.74331 | 0 ft | 0 kts | 3° |
| 2026-04-28 17:48 | 52.31955 | 4.74331 | 0 ft | 3 kts | 1° |
| 2026-04-28 17:48 | 52.31987 | 4.74326 | 0 ft | 7 kts | 347° |
| 2026-04-28 17:49 | 52.32028 | 4.74266 | -1 ft | 10 kts | 292° |
| 2026-04-28 17:49 | 52.32034 | 4.74131 | 0 ft | 14 kts | 273° |
| 2026-04-28 17:49 | 52.32040 | 4.73952 | 2 ft | 18 kts | 273° |
| 2026-04-28 17:49 | 52.32047 | 4.73733 | 6 ft | 21 kts | 273° |
| 2026-04-28 17:50 | 52.32056 | 4.73521 | 7 ft | 15 kts | 274° |
| 2026-04-28 17:50 | 52.32097 | 4.73345 | 6 ft | 18 kts | 312° |
| 2026-04-28 17:50 | 52.32201 | 4.73195 | 4 ft | 21 kts | 319° |
| 2026-04-28 17:50 | 52.32321 | 4.73026 | 2 ft | 24 kts | 319° |
| 2026-04-28 17:51 | 52.32385 | 4.72935 | 2 ft | 2 kts | 319° |
| 2026-04-28 17:51 | 52.32405 | 4.72908 | 2 ft | 6 kts | 320° |
| 2026-04-28 17:51 | 52.32461 | 4.72829 | 2 ft | 14 kts | 319° |
| 2026-04-28 17:51 | 52.32543 | 4.72714 | 2 ft | 17 kts | 319° |
| 2026-04-28 17:52 | 52.32643 | 4.72572 | 4 ft | 21 kts | 319° |
| 2026-04-28 17:52 | 52.32746 | 4.72392 | -4 ft | 22 kts | 309° |
| 2026-04-28 17:52 | 52.32944 | 4.72025 | 2 ft | 16 kts | 310° |
| 2026-04-28 17:53 | 52.33024 | 4.71882 | 3 ft | 18 kts | 313° |
| 2026-04-28 17:53 | 52.33064 | 4.71809 | 3 ft | 6 kts | 311° |
| 2026-04-28 17:53 | 52.33099 | 4.71742 | 4 ft | 9 kts | 309° |
| 2026-04-28 17:53 | 52.33140 | 4.71644 | 4 ft | 12 kts | 292° |
| 2026-04-28 17:54 | 52.33130 | 4.71503 | 4 ft | 14 kts | 237° |
| 2026-04-28 17:54 | 52.33053 | 4.71379 | 4 ft | 17 kts | 223° |
| 2026-04-28 17:54 | 52.32962 | 4.71246 | 3 ft | 19 kts | 221° |
| 2026-04-28 17:54 | 52.32892 | 4.71132 | 2 ft | 5 kts | 237° |
| 2026-04-28 17:55 | 52.32871 | 4.71076 | 1 ft | 7 kts | 251° |
| 2026-04-28 17:55 | 52.32869 | 4.71065 | 1 ft | 0 kts | 253° |
| 2026-04-28 17:56 | 52.32863 | 4.70980 | 2 ft | 11 kts | 265° |
| 2026-04-28 17:56 | 52.32911 | 4.70890 | 2 ft | 13 kts | 351° |
| 2026-04-28 17:56 | 52.32943 | 4.70893 | 1 ft | 19 kts | 3° |
| 2026-04-28 17:56 | 52.33318 | 4.70924 | 0 ft | 88 kts | 6° |
| 2026-04-28 17:57 | 52.34129 | 4.70988 | -2 ft | 147 kts | 1° |
| 2026-04-28 17:57 | 52.35275 | 4.71072 | 123 ft | 176 kts | 4° |
| 2026-04-28 17:57 | 52.36507 | 4.71222 | 663 ft | 178 kts | 3° |
| 2026-04-28 17:57 | 52.37809 | 4.71352 | 1086 ft | 200 kts | 3° |
| 2026-04-28 17:58 | 52.39264 | 4.71489 | 1577 ft | 218 kts | 4° |
| 2026-04-28 17:58 | 52.40794 | 4.71924 | 2220 ft | 229 kts | 22° |
| 2026-04-28 17:58 | 52.42096 | 4.73395 | 3045 ft | 231 kts | 55° |
| 2026-04-28 17:58 | 52.42587 | 4.75853 | 3792 ft | 234 kts | 96° |
| 2026-04-28 17:59 | 52.42062 | 4.78399 | 4388 ft | 244 kts | 129° |
| 2026-04-28 17:59 | 52.40834 | 4.80208 | 5107 ft | 237 kts | 156° |
| 2026-04-28 17:59 | 52.39230 | 4.80958 | 5764 ft | 245 kts | 170° |
| 2026-04-28 17:59 | 52.37559 | 4.81424 | 6508 ft | 249 kts | 171° |
| 2026-04-28 18:00 | 52.35842 | 4.81908 | 7298 ft | 252 kts | 170° |
| 2026-04-28 18:00 | 52.34108 | 4.82420 | 8053 ft | 255 kts | 170° |
| 2026-04-28 18:00 | 52.32342 | 4.82931 | 8646 ft | 266 kts | 171° |
| 2026-04-28 18:00 | 52.30453 | 4.83455 | 9115 ft | 281 kts | 171° |
| 2026-04-28 18:01 | 52.28502 | 4.84001 | 9786 ft | 287 kts | 171° |
| 2026-04-28 18:01 | 52.26970 | 4.84433 | 10318 ft | 294 kts | 171° |
| 2026-04-28 18:01 | 52.24875 | 4.84807 | 10674 ft | 312 kts | 179° |
| 2026-04-28 18:01 | 52.22637 | 4.84798 | 10970 ft | 332 kts | 181° |
| 2026-04-28 18:02 | 52.20254 | 4.84724 | 11241 ft | 351 kts | 181° |
| 2026-04-28 18:02 | 52.17794 | 4.84656 | 11642 ft | 363 kts | 181° |
| 2026-04-28 18:02 | 52.15418 | 4.84596 | 12231 ft | 368 kts | 181° |
| 2026-04-28 18:02 | 52.12844 | 4.84537 | 12755 ft | 371 kts | 181° |
| 2026-04-28 18:03 | 52.10258 | 4.84482 | 12964 ft | 373 kts | 181° |
| 2026-04-28 18:03 | 52.07668 | 4.84429 | 13017 ft | 373 kts | 181° |
| 2026-04-28 18:03 | 52.05072 | 4.84376 | 13013 ft | 373 kts | 181° |
| 2026-04-28 18:03 | 52.02484 | 4.84091 | 13119 ft | 373 kts | 191° |
| 2026-04-28 18:04 | 52.00012 | 4.82807 | 13648 ft | 375 kts | 204° |
| 2026-04-28 18:04 | 51.97652 | 4.80970 | 14290 ft | 378 kts | 206° |
| 2026-04-28 18:04 | 51.95287 | 4.79060 | 14883 ft | 382 kts | 206° |
| 2026-04-28 18:04 | 51.92896 | 4.77151 | 15466 ft | 385 kts | 206° |
| 2026-04-28 18:05 | 51.90506 | 4.75277 | 16018 ft | 388 kts | 206° |
| 2026-04-28 18:05 | 51.88865 | 4.73986 | 16391 ft | 390 kts | 206° |
| 2026-04-28 18:05 | 51.85611 | 4.71438 | 17076 ft | 394 kts | 206° |
| 2026-04-28 18:05 | 51.83131 | 4.69493 | 17584 ft | 397 kts | 206° |
| 2026-04-28 18:06 | 51.80638 | 4.67540 | 18077 ft | 400 kts | 206° |
| 2026-04-28 18:06 | 51.78120 | 4.65577 | 18560 ft | 403 kts | 206° |
| 2026-04-28 18:06 | 51.75582 | 4.63605 | 19025 ft | 406 kts | 206° |
| 2026-04-28 18:06 | 51.73027 | 4.61620 | 19492 ft | 409 kts | 206° |
| 2026-04-28 18:07 | 51.70461 | 4.59625 | 19948 ft | 412 kts | 206° |
| 2026-04-28 18:07 | 51.67854 | 4.57662 | 20399 ft | 414 kts | 205° |
| 2026-04-28 18:07 | 51.65228 | 4.55718 | 20837 ft | 417 kts | 205° |
| 2026-04-28 18:07 | 51.62611 | 4.53793 | 21267 ft | 420 kts | 205° |
| 2026-04-28 18:08 | 51.59916 | 4.51805 | 21701 ft | 423 kts | 205° |
| 2026-04-28 18:08 | 51.57267 | 4.49844 | 22132 ft | 426 kts | 205° |
| 2026-04-28 18:08 | 51.54571 | 4.47842 | 22550 ft | 428 kts | 205° |
| 2026-04-28 18:08 | 51.51854 | 4.45828 | 22960 ft | 431 kts | 205° |
| 2026-04-28 18:09 | 51.49126 | 4.43806 | 23365 ft | 433 kts | 205° |
| 2026-04-28 18:09 | 51.46378 | 4.41768 | 23758 ft | 436 kts | 205° |
| 2026-04-28 18:09 | 51.43618 | 4.39726 | 24138 ft | 439 kts | 205° |
| 2026-04-28 18:09 | 51.40839 | 4.37672 | 24517 ft | 441 kts | 205° |
| 2026-04-28 18:10 | 51.38049 | 4.35610 | 24875 ft | 444 kts | 205° |
| 2026-04-28 18:10 | 51.35239 | 4.33539 | 25223 ft | 446 kts | 205° |
| 2026-04-28 18:10 | 51.32448 | 4.31485 | 25562 ft | 448 kts | 205° |
| 2026-04-28 18:10 | 51.29606 | 4.29394 | 25891 ft | 451 kts | 205° |
| 2026-04-28 18:11 | 51.26752 | 4.27296 | 26215 ft | 453 kts | 205° |
| 2026-04-28 18:11 | 51.23887 | 4.25194 | 26531 ft | 455 kts | 205° |
| 2026-04-28 18:11 | 51.21001 | 4.23074 | 26841 ft | 457 kts | 205° |
| 2026-04-28 18:11 | 51.18228 | 4.21039 | 27124 ft | 459 kts | 205° |
| 2026-04-28 18:12 | 51.15320 | 4.18919 | 27405 ft | 461 kts | 205° |
| 2026-04-28 18:12 | 51.12402 | 4.16796 | 27680 ft | 462 kts | 205° |
| 2026-04-28 18:12 | 51.09473 | 4.14664 | 28027 ft | 462 kts | 205° |
| 2026-04-28 18:12 | 51.06598 | 4.12565 | 28374 ft | 461 kts | 205° |
| 2026-04-28 18:13 | 51.03685 | 4.10453 | 28725 ft | 460 kts | 205° |
| 2026-04-28 18:13 | 51.00776 | 4.08341 | 29072 ft | 460 kts | 205° |
| 2026-04-28 18:13 | 50.97865 | 4.06233 | 29411 ft | 459 kts | 205° |
| 2026-04-28 18:13 | 50.94961 | 4.04136 | 29747 ft | 458 kts | 204° |
| 2026-04-28 18:14 | 50.92062 | 4.02038 | 30071 ft | 458 kts | 205° |
| 2026-04-28 18:14 | 50.89166 | 3.99945 | 30397 ft | 457 kts | 205° |
| 2026-04-28 18:14 | 50.86300 | 3.97880 | 30702 ft | 457 kts | 204° |
| 2026-04-28 18:14 | 50.83383 | 3.95791 | 31017 ft | 456 kts | 204° |
| 2026-04-28 18:15 | 50.80500 | 3.93720 | 31321 ft | 455 kts | 204° |
| 2026-04-28 18:15 | 50.77658 | 3.91680 | 31594 ft | 455 kts | 204° |
| 2026-04-28 18:15 | 50.74763 | 3.89609 | 31791 ft | 457 kts | 204° |
| 2026-04-28 18:15 | 50.71862 | 3.87536 | 32013 ft | 458 kts | 204° |
| 2026-04-28 18:16 | 50.68961 | 3.85463 | 32268 ft | 458 kts | 204° |
| 2026-04-28 18:16 | 50.66063 | 3.83399 | 32532 ft | 457 kts | 204° |
| 2026-04-28 18:16 | 50.63169 | 3.81337 | 32788 ft | 457 kts | 204° |
| 2026-04-28 18:16 | 50.60270 | 3.79269 | 33027 ft | 456 kts | 204° |
| 2026-04-28 18:17 | 50.57384 | 3.77217 | 33270 ft | 456 kts | 204° |
| 2026-04-28 18:17 | 50.54492 | 3.75169 | 33491 ft | 455 kts | 204° |
| 2026-04-28 18:17 | 50.51647 | 3.73152 | 33704 ft | 455 kts | 204° |
| 2026-04-28 18:17 | 50.48770 | 3.71109 | 33912 ft | 454 kts | 204° |
| 2026-04-28 18:18 | 50.45884 | 3.69069 | 34109 ft | 454 kts | 204° |
| 2026-04-28 18:18 | 50.43005 | 3.67038 | 34296 ft | 454 kts | 204° |
| 2026-04-28 18:18 | 50.40132 | 3.65015 | 34483 ft | 453 kts | 204° |
| 2026-04-28 18:18 | 50.38225 | 3.63672 | 34602 ft | 453 kts | 204° |
| 2026-04-28 18:19 | 50.34381 | 3.60965 | 34832 ft | 453 kts | 204° |
| 2026-04-28 18:19 | 50.31509 | 3.58945 | 34997 ft | 452 kts | 204° |
| 2026-04-28 18:19 | 50.25761 | 3.54925 | 35030 ft | 452 kts | 204° |
| 2026-04-28 18:20 | 50.20059 | 3.50948 | 35010 ft | 452 kts | 204° |
| 2026-04-28 18:20 | 50.14311 | 3.46945 | 35001 ft | 452 kts | 204° |
| 2026-04-28 18:21 | 50.08567 | 3.42947 | 35000 ft | 452 kts | 204° |
| 2026-04-28 18:21 | 50.02817 | 3.38957 | 35004 ft | 453 kts | 204° |
| 2026-04-28 18:22 | 49.97067 | 3.34978 | 35005 ft | 452 kts | 204° |
| 2026-04-28 18:22 | 49.91354 | 3.31042 | 35007 ft | 452 kts | 204° |
| 2026-04-28 18:23 | 49.85596 | 3.27093 | 34997 ft | 452 kts | 204° |
| 2026-04-28 18:23 | 49.79844 | 3.23142 | 35004 ft | 452 kts | 204° |
| 2026-04-28 18:24 | 49.75059 | 3.19868 | 34969 ft | 453 kts | 204° |
| 2026-04-28 18:24 | 49.71246 | 3.17265 | 35378 ft | 453 kts | 208° |
| 2026-04-28 18:24 | 49.68425 | 3.15347 | 35253 ft | 434 kts | 208° |
| 2026-04-28 18:25 | 49.65689 | 3.13489 | 35129 ft | 426 kts | 208° |
| 2026-04-28 18:25 | 49.62984 | 3.11644 | 35077 ft | 424 kts | 208° |
| 2026-04-28 18:26 | 49.54890 | 3.06146 | 35047 ft | 424 kts | 208° |
| 2026-04-28 18:26 | 49.49487 | 3.02493 | 35050 ft | 424 kts | 208° |
| 2026-04-28 18:27 | 49.44126 | 2.98875 | 35053 ft | 424 kts | 208° |
| 2026-04-28 18:27 | 49.38740 | 2.95242 | 35045 ft | 424 kts | 208° |
| 2026-04-28 18:28 | 49.33346 | 2.91616 | 35040 ft | 422 kts | 208° |
| 2026-04-28 18:28 | 49.27966 | 2.88021 | 35042 ft | 422 kts | 208° |